sensor_id;sensor_type;location;lat;lon;timestamp;P1;durP1;ratioP1;P2;durP2;ratioP2
40793;SDS011;26502;51.886;15.604;2023-02-15T00:01:14;23.60;;;14.90;;
40793;SDS011;26502;51.886;15.604;2023-02-15T00:06:23;26.80;;;15.70;;
40793;SDS011;26502;51.886;15.604;2023-02-15T00:11:29;26.00;;;14.80;;
40793;SDS011;26502;51.886;15.604;2023-02-15T00:16:46;23.10;;;14.40;;
40793;SDS011;26502;51.886;15.604;2023-02-15T00:21:53;23.30;;;14.40;;
40793;SDS011;26502;51.886;15.604;2023-02-15T00:26:59;23.50;;;14.50;;
40793;SDS011;26502;51.886;15.604;2023-02-15T00:32:06;27.30;;;14.80;;
40793;SDS011;26502;51.886;15.604;2023-02-15T00:37:12;22.00;;;14.10;;
40793;SDS011;26502;51.886;15.604;2023-02-15T00:42:18;24.20;;;14.80;;
40793;SDS011;26502;51.886;15.604;2023-02-15T00:47:24;27.50;;;16.80;;
40793;SDS011;26502;51.886;15.604;2023-02-15T00:52:30;30.30;;;18.70;;
40793;SDS011;26502;51.886;15.604;2023-02-15T00:57:37;28.10;;;17.60;;
40793;SDS011;26502;51.886;15.604;2023-02-15T01:02:43;28.50;;;17.30;;
40793;SDS011;26502;51.886;15.604;2023-02-15T01:07:49;27.50;;;15.20;;
40793;SDS011;26502;51.886;15.604;2023-02-15T01:12:55;22.80;;;14.60;;
40793;SDS011;26502;51.886;15.604;2023-02-15T01:18:01;26.30;;;16.30;;
40793;SDS011;26502;51.886;15.604;2023-02-15T01:23:08;28.20;;;17.70;;
40793;SDS011;26502;51.886;15.604;2023-02-15T01:28:15;32.50;;;18.80;;
40793;SDS011;26502;51.886;15.604;2023-02-15T01:33:21;34.30;;;18.40;;
40793;SDS011;26502;51.886;15.604;2023-02-15T01:38:27;30.90;;;17.70;;
40793;SDS011;26502;51.886;15.604;2023-02-15T01:43:40;31.50;;;18.40;;
40793;SDS011;26502;51.886;15.604;2023-02-15T01:48:48;34.70;;;20.90;;
40793;SDS011;26502;51.886;15.604;2023-02-15T01:53:59;34.80;;;19.00;;
40793;SDS011;26502;51.886;15.604;2023-02-15T01:59:14;35.90;;;19.40;;
40793;SDS011;26502;51.886;15.604;2023-02-15T02:04:28;33.30;;;20.50;;
40793;SDS011;26502;51.886;15.604;2023-02-15T02:09:39;33.50;;;19.50;;
40793;SDS011;26502;51.886;15.604;2023-02-15T02:14:48;32.70;;;20.20;;
40793;SDS011;26502;51.886;15.604;2023-02-15T02:25:32;35.90;;;20.80;;
40793;SDS011;26502;51.886;15.604;2023-02-15T02:30:58;37.20;;;21.10;;
40793;SDS011;26502;51.886;15.604;2023-02-15T02:36:31;36.80;;;20.50;;
40793;SDS011;26502;51.886;15.604;2023-02-15T02:41:48;36.20;;;21.30;;
40793;SDS011;26502;51.886;15.604;2023-02-15T02:47:04;37.80;;;21.30;;
40793;SDS011;26502;51.886;15.604;2023-02-15T02:57:42;41.70;;;23.40;;
40793;SDS011;26502;51.886;15.604;2023-02-15T03:03:03;39.40;;;23.60;;
40793;SDS011;26502;51.886;15.604;2023-02-15T03:08:15;37.80;;;22.90;;
40793;SDS011;26502;51.886;15.604;2023-02-15T03:13:25;44.70;;;24.50;;
40793;SDS011;26502;51.886;15.604;2023-02-15T03:18:34;40.90;;;24.20;;
40793;SDS011;26502;51.886;15.604;2023-02-15T03:23:44;40.10;;;23.60;;
40793;SDS011;26502;51.886;15.604;2023-02-15T03:28:52;40.00;;;23.60;;
40793;SDS011;26502;51.886;15.604;2023-02-15T03:34:02;37.90;;;22.20;;
40793;SDS011;26502;51.886;15.604;2023-02-15T03:39:12;37.10;;;22.00;;
40793;SDS011;26502;51.886;15.604;2023-02-15T03:44:25;37.10;;;20.90;;
40793;SDS011;26502;51.886;15.604;2023-02-15T03:49:36;38.40;;;21.70;;
40793;SDS011;26502;51.886;15.604;2023-02-15T03:54:46;34.60;;;21.30;;
40793;SDS011;26502;51.886;15.604;2023-02-15T03:59:53;47.10;;;23.90;;
40793;SDS011;26502;51.886;15.604;2023-02-15T04:05:17;39.10;;;22.80;;
40793;SDS011;26502;51.886;15.604;2023-02-15T04:10:23;38.80;;;22.80;;
40793;SDS011;26502;51.886;15.604;2023-02-15T04:15:47;37.90;;;21.60;;
40793;SDS011;26502;51.886;15.604;2023-02-15T04:21:10;38.50;;;22.50;;
40793;SDS011;26502;51.886;15.604;2023-02-15T04:26:33;37.40;;;22.30;;
40793;SDS011;26502;51.886;15.604;2023-02-15T04:31:39;36.60;;;23.00;;
40793;SDS011;26502;51.886;15.604;2023-02-15T04:36:46;41.10;;;23.00;;
40793;SDS011;26502;51.886;15.604;2023-02-15T04:41:53;42.40;;;22.70;;
40793;SDS011;26502;51.886;15.604;2023-02-15T04:46:59;39.80;;;22.50;;
40793;SDS011;26502;51.886;15.604;2023-02-15T04:52:05;40.10;;;23.70;;
40793;SDS011;26502;51.886;15.604;2023-02-15T04:57:12;39.40;;;22.30;;
40793;SDS011;26502;51.886;15.604;2023-02-15T05:02:18;37.20;;;22.30;;
40793;SDS011;26502;51.886;15.604;2023-02-15T05:07:24;40.90;;;22.10;;
40793;SDS011;26502;51.886;15.604;2023-02-15T05:12:30;37.90;;;21.70;;
40793;SDS011;26502;51.886;15.604;2023-02-15T05:17:36;39.90;;;22.50;;
40793;SDS011;26502;51.886;15.604;2023-02-15T05:22:43;39.90;;;22.70;;
40793;SDS011;26502;51.886;15.604;2023-02-15T05:27:49;44.70;;;22.70;;
40793;SDS011;26502;51.886;15.604;2023-02-15T05:33:12;37.30;;;21.80;;
40793;SDS011;26502;51.886;15.604;2023-02-15T05:38:19;38.70;;;22.00;;
40793;SDS011;26502;51.886;15.604;2023-02-15T05:43:25;39.10;;;21.90;;
40793;SDS011;26502;51.886;15.604;2023-02-15T05:48:32;38.00;;;21.10;;
40793;SDS011;26502;51.886;15.604;2023-02-15T05:53:39;39.20;;;22.00;;
40793;SDS011;26502;51.886;15.604;2023-02-15T05:58:46;41.70;;;23.70;;
40793;SDS011;26502;51.886;15.604;2023-02-15T06:03:52;36.70;;;22.60;;
40793;SDS011;26502;51.886;15.604;2023-02-15T06:08:58;37.20;;;21.80;;
40793;SDS011;26502;51.886;15.604;2023-02-15T06:14:05;37.70;;;22.20;;
40793;SDS011;26502;51.886;15.604;2023-02-15T06:19:11;43.70;;;23.10;;
40793;SDS011;26502;51.886;15.604;2023-02-15T06:24:17;43.10;;;23.10;;
40793;SDS011;26502;51.886;15.604;2023-02-15T06:29:23;41.60;;;22.90;;
40793;SDS011;26502;51.886;15.604;2023-02-15T06:34:30;43.80;;;24.90;;
40793;SDS011;26502;51.886;15.604;2023-02-15T06:39:37;38.90;;;21.80;;
40793;SDS011;26502;51.886;15.604;2023-02-15T06:44:43;41.80;;;23.30;;
40793;SDS011;26502;51.886;15.604;2023-02-15T06:49:49;40.10;;;23.40;;
40793;SDS011;26502;51.886;15.604;2023-02-15T06:54:57;40.30;;;22.60;;
40793;SDS011;26502;51.886;15.604;2023-02-15T07:00:06;39.70;;;23.40;;
40793;SDS011;26502;51.886;15.604;2023-02-15T07:05:13;45.30;;;25.60;;
40793;SDS011;26502;51.886;15.604;2023-02-15T07:10:19;50.90;;;27.90;;
40793;SDS011;26502;51.886;15.604;2023-02-15T07:15:25;47.50;;;26.20;;
40793;SDS011;26502;51.886;15.604;2023-02-15T07:20:32;50.50;;;27.00;;
40793;SDS011;26502;51.886;15.604;2023-02-15T07:25:39;47.30;;;26.10;;
40793;SDS011;26502;51.886;15.604;2023-02-15T07:36:41;43.00;;;26.00;;
40793;SDS011;26502;51.886;15.604;2023-02-15T07:41:49;48.70;;;26.50;;
40793;SDS011;26502;51.886;15.604;2023-02-15T07:46:55;51.70;;;27.50;;
40793;SDS011;26502;51.886;15.604;2023-02-15T07:52:01;76.00;;;42.80;;
40793;SDS011;26502;51.886;15.604;2023-02-15T07:57:07;87.40;;;46.30;;
40793;SDS011;26502;51.886;15.604;2023-02-15T08:02:14;70.90;;;39.40;;
40793;SDS011;26502;51.886;15.604;2023-02-15T08:07:20;73.20;;;40.40;;
40793;SDS011;26502;51.886;15.604;2023-02-15T08:12:27;64.70;;;35.70;;
40793;SDS011;26502;51.886;15.604;2023-02-15T08:17:37;67.80;;;36.20;;
40793;SDS011;26502;51.886;15.604;2023-02-15T08:28:40;75.60;;;39.50;;
40793;SDS011;26502;51.886;15.604;2023-02-15T08:34:33;72.70;;;38.50;;
40793;SDS011;26502;51.886;15.604;2023-02-15T08:40:00;77.20;;;40.00;;
40793;SDS011;26502;51.886;15.604;2023-02-15T08:45:08;73.10;;;38.60;;
40793;SDS011;26502;51.886;15.604;2023-02-15T08:50:14;75.90;;;40.20;;
40793;SDS011;26502;51.886;15.604;2023-02-15T08:55:21;70.50;;;37.00;;
40793;SDS011;26502;51.886;15.604;2023-02-15T09:00:27;66.50;;;35.50;;
40793;SDS011;26502;51.886;15.604;2023-02-15T09:05:34;72.30;;;39.50;;
40793;SDS011;26502;51.886;15.604;2023-02-15T09:10:40;66.30;;;37.00;;
40793;SDS011;26502;51.886;15.604;2023-02-15T09:15:46;64.70;;;33.40;;
40793;SDS011;26502;51.886;15.604;2023-02-15T09:20:52;61.50;;;35.70;;
40793;SDS011;26502;51.886;15.604;2023-02-15T09:26:02;67.50;;;38.40;;
40793;SDS011;26502;51.886;15.604;2023-02-15T09:31:10;62.10;;;34.70;;
40793;SDS011;26502;51.886;15.604;2023-02-15T09:36:19;64.80;;;34.30;;
40793;SDS011;26502;51.886;15.604;2023-02-15T09:41:38;79.30;;;41.40;;
40793;SDS011;26502;51.886;15.604;2023-02-15T09:47:22;72.70;;;40.30;;
40793;SDS011;26502;51.886;15.604;2023-02-15T09:52:46;71.90;;;38.80;;
40793;SDS011;26502;51.886;15.604;2023-02-15T09:58:01;66.50;;;39.30;;
40793;SDS011;26502;51.886;15.604;2023-02-15T10:03:25;68.90;;;38.60;;
40793;SDS011;26502;51.886;15.604;2023-02-15T10:08:46;61.70;;;35.60;;
40793;SDS011;26502;51.886;15.604;2023-02-15T10:14:07;62.10;;;35.20;;
40793;SDS011;26502;51.886;15.604;2023-02-15T10:19:26;61.40;;;35.90;;
40793;SDS011;26502;51.886;15.604;2023-02-15T10:24:58;61.40;;;35.70;;
40793;SDS011;26502;51.886;15.604;2023-02-15T10:30:20;59.00;;;34.30;;
40793;SDS011;26502;51.886;15.604;2023-02-15T10:35:35;57.30;;;35.00;;
40793;SDS011;26502;51.886;15.604;2023-02-15T10:40:49;48.30;;;31.30;;
40793;SDS011;26502;51.886;15.604;2023-02-15T10:46:08;50.50;;;30.00;;
40793;SDS011;26502;51.886;15.604;2023-02-15T10:58:49;53.30;;;33.90;;
40793;SDS011;26502;51.886;15.604;2023-02-15T11:04:32;52.60;;;33.80;;
40793;SDS011;26502;51.886;15.604;2023-02-15T11:09:48;51.60;;;30.40;;
40793;SDS011;26502;51.886;15.604;2023-02-15T11:14:56;50.10;;;31.50;;
40793;SDS011;26502;51.886;15.604;2023-02-15T11:27:12;54.00;;;33.90;;
40793;SDS011;26502;51.886;15.604;2023-02-15T11:32:22;55.10;;;33.00;;
40793;SDS011;26502;51.886;15.604;2023-02-15T11:55:01;50.80;;;34.60;;
40793;SDS011;26502;51.886;15.604;2023-02-15T12:00:20;46.90;;;30.10;;
40793;SDS011;26502;51.886;15.604;2023-02-15T12:05:39;48.30;;;32.10;;
40793;SDS011;26502;51.886;15.604;2023-02-15T12:10:56;46.00;;;30.30;;
40793;SDS011;26502;51.886;15.604;2023-02-15T12:16:09;48.10;;;32.70;;
40793;SDS011;26502;51.886;15.604;2023-02-15T12:21:23;47.10;;;33.10;;
40793;SDS011;26502;51.886;15.604;2023-02-15T12:26:33;48.80;;;31.50;;
40793;SDS011;26502;51.886;15.604;2023-02-15T12:31:41;48.70;;;32.70;;
40793;SDS011;26502;51.886;15.604;2023-02-15T12:36:52;48.10;;;31.70;;
40793;SDS011;26502;51.886;15.604;2023-02-15T12:42:08;37.80;;;24.70;;
40793;SDS011;26502;51.886;15.604;2023-02-15T12:47:22;36.30;;;25.10;;
40793;SDS011;26502;51.886;15.604;2023-02-15T12:52:29;39.90;;;27.60;;
40793;SDS011;26502;51.886;15.604;2023-02-15T12:57:36;33.60;;;22.60;;
40793;SDS011;26502;51.886;15.604;2023-02-15T13:02:43;37.00;;;24.30;;
40793;SDS011;26502;51.886;15.604;2023-02-15T13:07:53;34.00;;;24.40;;
40793;SDS011;26502;51.886;15.604;2023-02-15T13:13:01;36.70;;;26.00;;
40793;SDS011;26502;51.886;15.604;2023-02-15T13:18:14;39.50;;;27.20;;
40793;SDS011;26502;51.886;15.604;2023-02-15T13:23:27;38.80;;;26.40;;
40793;SDS011;26502;51.886;15.604;2023-02-15T13:28:37;35.90;;;25.80;;
40793;SDS011;26502;51.886;15.604;2023-02-15T13:33:50;40.60;;;28.10;;
40793;SDS011;26502;51.886;15.604;2023-02-15T13:44:10;39.50;;;28.00;;
40793;SDS011;26502;51.886;15.604;2023-02-15T13:49:26;39.20;;;26.60;;
40793;SDS011;26502;51.886;15.604;2023-02-15T13:54:46;36.30;;;25.60;;
40793;SDS011;26502;51.886;15.604;2023-02-15T14:00:04;41.20;;;28.10;;
40793;SDS011;26502;51.886;15.604;2023-02-15T14:11:19;34.50;;;24.40;;
40793;SDS011;26502;51.886;15.604;2023-02-15T14:16:39;35.40;;;24.20;;
40793;SDS011;26502;51.886;15.604;2023-02-15T14:21:54;35.70;;;25.40;;
40793;SDS011;26502;51.886;15.604;2023-02-15T14:27:09;40.80;;;27.50;;
40793;SDS011;26502;51.886;15.604;2023-02-15T14:32:26;33.80;;;24.20;;
40793;SDS011;26502;51.886;15.604;2023-02-15T14:37:41;32.40;;;24.10;;
40793;SDS011;26502;51.886;15.604;2023-02-15T14:42:56;32.20;;;23.70;;
40793;SDS011;26502;51.886;15.604;2023-02-15T14:48:08;32.90;;;22.80;;
40793;SDS011;26502;51.886;15.604;2023-02-15T14:58:56;33.30;;;24.10;;
40793;SDS011;26502;51.886;15.604;2023-02-15T15:04:06;35.80;;;25.80;;
40793;SDS011;26502;51.886;15.604;2023-02-15T15:09:20;34.30;;;24.50;;
40793;SDS011;26502;51.886;15.604;2023-02-15T15:14:37;31.00;;;22.50;;
40793;SDS011;26502;51.886;15.604;2023-02-15T15:30:52;28.00;;;20.20;;
40793;SDS011;26502;51.886;15.604;2023-02-15T15:36:06;29.10;;;20.80;;
40793;SDS011;26502;51.886;15.604;2023-02-15T15:41:30;28.40;;;21.00;;
40793;SDS011;26502;51.886;15.604;2023-02-15T15:47:36;27.00;;;20.10;;
40793;SDS011;26502;51.886;15.604;2023-02-15T15:52:57;27.40;;;19.30;;
40793;SDS011;26502;51.886;15.604;2023-02-15T15:58:05;24.30;;;17.70;;
40793;SDS011;26502;51.886;15.604;2023-02-15T16:03:15;25.50;;;18.90;;
40793;SDS011;26502;51.886;15.604;2023-02-15T16:08:29;24.30;;;16.60;;
40793;SDS011;26502;51.886;15.604;2023-02-15T16:13:38;23.30;;;17.00;;
40793;SDS011;26502;51.886;15.604;2023-02-15T16:18:46;21.40;;;16.30;;
40793;SDS011;26502;51.886;15.604;2023-02-15T16:24:02;25.40;;;17.20;;
40793;SDS011;26502;51.886;15.604;2023-02-15T16:29:27;27.00;;;17.40;;
40793;SDS011;26502;51.886;15.604;2023-02-15T16:34:36;25.50;;;16.90;;
40793;SDS011;26502;51.886;15.604;2023-02-15T16:39:42;26.50;;;16.80;;
40793;SDS011;26502;51.886;15.604;2023-02-15T16:44:51;32.10;;;19.30;;
40793;SDS011;26502;51.886;15.604;2023-02-15T16:50:04;33.60;;;21.00;;
40793;SDS011;26502;51.886;15.604;2023-02-15T16:55:21;31.90;;;19.60;;
40793;SDS011;26502;51.886;15.604;2023-02-15T17:00:30;30.50;;;19.50;;
40793;SDS011;26502;51.886;15.604;2023-02-15T17:05:42;34.40;;;20.60;;
40793;SDS011;26502;51.886;15.604;2023-02-15T17:11:01;32.10;;;21.30;;
40793;SDS011;26502;51.886;15.604;2023-02-15T17:16:29;43.90;;;28.30;;
40793;SDS011;26502;51.886;15.604;2023-02-15T17:21:39;40.10;;;23.30;;
40793;SDS011;26502;51.886;15.604;2023-02-15T17:26:50;44.30;;;26.20;;
40793;SDS011;26502;51.886;15.604;2023-02-15T17:32:03;45.70;;;28.70;;
40793;SDS011;26502;51.886;15.604;2023-02-15T17:37:24;71.20;;;41.60;;
40793;SDS011;26502;51.886;15.604;2023-02-15T17:42:34;61.40;;;40.10;;
40793;SDS011;26502;51.886;15.604;2023-02-15T17:47:43;93.20;;;55.00;;
40793;SDS011;26502;51.886;15.604;2023-02-15T17:52:52;119.00;;;72.10;;
40793;SDS011;26502;51.886;15.604;2023-02-15T18:03:08;110.80;;;73.60;;
40793;SDS011;26502;51.886;15.604;2023-02-15T18:08:33;115.40;;;71.80;;
40793;SDS011;26502;51.886;15.604;2023-02-15T18:13:57;105.40;;;67.30;;
40793;SDS011;26502;51.886;15.604;2023-02-15T18:19:04;103.70;;;63.80;;
40793;SDS011;26502;51.886;15.604;2023-02-15T18:24:18;102.50;;;64.10;;
40793;SDS011;26502;51.886;15.604;2023-02-15T18:34:31;120.40;;;74.90;;
40793;SDS011;26502;51.886;15.604;2023-02-15T18:39:41;132.50;;;81.20;;
40793;SDS011;26502;51.886;15.604;2023-02-15T18:44:49;118.00;;;74.00;;
40793;SDS011;26502;51.886;15.604;2023-02-15T18:49:59;118.00;;;74.40;;
40793;SDS011;26502;51.886;15.604;2023-02-15T18:55:12;116.20;;;72.20;;
40793;SDS011;26502;51.886;15.604;2023-02-15T19:00:23;116.10;;;66.90;;
40793;SDS011;26502;51.886;15.604;2023-02-15T19:12:25;100.50;;;55.80;;
40793;SDS011;26502;51.886;15.604;2023-02-15T19:17:31;113.50;;;61.60;;
40793;SDS011;26502;51.886;15.604;2023-02-15T19:22:43;230.40;;;110.80;;
40793;SDS011;26502;51.886;15.604;2023-02-15T19:27:51;272.90;;;131.00;;
40793;SDS011;26502;51.886;15.604;2023-02-15T19:32:58;128.00;;;71.60;;
40793;SDS011;26502;51.886;15.604;2023-02-15T19:38:23;115.00;;;65.40;;
40793;SDS011;26502;51.886;15.604;2023-02-15T19:43:32;139.10;;;85.70;;
40793;SDS011;26502;51.886;15.604;2023-02-15T19:48:40;137.80;;;75.10;;
40793;SDS011;26502;51.886;15.604;2023-02-15T19:53:47;129.20;;;75.00;;
40793;SDS011;26502;51.886;15.604;2023-02-15T19:58:54;110.00;;;63.10;;
40793;SDS011;26502;51.886;15.604;2023-02-15T20:04:01;172.60;;;91.70;;
40793;SDS011;26502;51.886;15.604;2023-02-15T20:09:09;158.30;;;88.60;;
40793;SDS011;26502;51.886;15.604;2023-02-15T20:14:24;189.60;;;104.20;;
40793;SDS011;26502;51.886;15.604;2023-02-15T20:19:31;196.40;;;107.50;;
40793;SDS011;26502;51.886;15.604;2023-02-15T20:24:37;148.60;;;86.30;;
40793;SDS011;26502;51.886;15.604;2023-02-15T20:29:45;150.90;;;87.00;;
40793;SDS011;26502;51.886;15.604;2023-02-15T20:34:52;146.20;;;84.30;;
40793;SDS011;26502;51.886;15.604;2023-02-15T20:39:59;151.40;;;84.00;;
40793;SDS011;26502;51.886;15.604;2023-02-15T20:45:12;146.90;;;80.10;;
40793;SDS011;26502;51.886;15.604;2023-02-15T20:50:22;135.80;;;73.40;;
40793;SDS011;26502;51.886;15.604;2023-02-15T20:55:30;167.20;;;83.10;;
40793;SDS011;26502;51.886;15.604;2023-02-15T21:00:36;137.60;;;74.30;;
40793;SDS011;26502;51.886;15.604;2023-02-15T21:05:43;155.50;;;80.70;;
40793;SDS011;26502;51.886;15.604;2023-02-15T21:10:52;152.30;;;81.40;;
40793;SDS011;26502;51.886;15.604;2023-02-15T21:15:59;145.90;;;80.30;;
40793;SDS011;26502;51.886;15.604;2023-02-15T21:21:08;198.50;;;96.60;;
40793;SDS011;26502;51.886;15.604;2023-02-15T21:26:21;216.90;;;100.40;;
40793;SDS011;26502;51.886;15.604;2023-02-15T21:31:27;230.80;;;110.80;;
40793;SDS011;26502;51.886;15.604;2023-02-15T21:36:34;215.10;;;103.90;;
40793;SDS011;26502;51.886;15.604;2023-02-15T21:41:44;221.50;;;101.90;;
40793;SDS011;26502;51.886;15.604;2023-02-15T21:47:16;220.30;;;104.70;;
40793;SDS011;26502;51.886;15.604;2023-02-15T21:52:42;233.20;;;105.30;;
40793;SDS011;26502;51.886;15.604;2023-02-15T21:57:49;219.30;;;105.60;;
40793;SDS011;26502;51.886;15.604;2023-02-15T22:02:56;176.80;;;80.60;;
40793;SDS011;26502;51.886;15.604;2023-02-15T22:08:04;180.70;;;83.10;;
40793;SDS011;26502;51.886;15.604;2023-02-15T22:13:17;193.20;;;88.30;;
40793;SDS011;26502;51.886;15.604;2023-02-15T22:18:29;204.10;;;93.70;;
40793;SDS011;26502;51.886;15.604;2023-02-15T22:23:37;198.10;;;89.60;;
40793;SDS011;26502;51.886;15.604;2023-02-15T22:28:43;181.90;;;86.90;;
40793;SDS011;26502;51.886;15.604;2023-02-15T22:33:49;212.20;;;96.50;;
40793;SDS011;26502;51.886;15.604;2023-02-15T22:38:57;184.80;;;84.50;;
40793;SDS011;26502;51.886;15.604;2023-02-15T22:44:04;169.80;;;82.40;;
40793;SDS011;26502;51.886;15.604;2023-02-15T22:49:12;128.50;;;64.70;;
40793;SDS011;26502;51.886;15.604;2023-02-15T22:54:19;111.10;;;56.80;;
40793;SDS011;26502;51.886;15.604;2023-02-15T22:59:25;122.60;;;58.90;;
40793;SDS011;26502;51.886;15.604;2023-02-15T23:04:36;140.30;;;70.20;;
40793;SDS011;26502;51.886;15.604;2023-02-15T23:09:42;157.20;;;76.90;;
40793;SDS011;26502;51.886;15.604;2023-02-15T23:14:49;158.60;;;78.70;;
40793;SDS011;26502;51.886;15.604;2023-02-15T23:19:56;182.00;;;88.90;;
40793;SDS011;26502;51.886;15.604;2023-02-15T23:25:04;183.10;;;90.70;;
40793;SDS011;26502;51.886;15.604;2023-02-15T23:30:13;173.10;;;82.50;;
40793;SDS011;26502;51.886;15.604;2023-02-15T23:35:20;158.00;;;76.20;;
40793;SDS011;26502;51.886;15.604;2023-02-15T23:40:27;149.20;;;69.70;;
40793;SDS011;26502;51.886;15.604;2023-02-15T23:45:51;145.30;;;69.10;;
40793;SDS011;26502;51.886;15.604;2023-02-15T23:50:57;118.20;;;60.60;;
40793;SDS011;26502;51.886;15.604;2023-02-15T23:56:05;121.00;;;59.70;;
